sensor_id;sensor_type;location;lat;lon;timestamp;P1;durP1;ratioP1;P2;durP2;ratioP2
23171;SDS011;11754;42.664;23.594;2023-06-22T00:00:55;10.93;;;9.45;;
23171;SDS011;11754;42.664;23.594;2023-06-22T00:03:22;10.13;;;8.98;;
23171;SDS011;11754;42.664;23.594;2023-06-22T00:05:49;12.70;;;9.73;;
23171;SDS011;11754;42.664;23.594;2023-06-22T00:08:15;11.38;;;9.38;;
23171;SDS011;11754;42.664;23.594;2023-06-22T00:10:41;11.10;;;9.88;;
23171;SDS011;11754;42.664;23.594;2023-06-22T00:13:07;13.50;;;10.00;;
23171;SDS011;11754;42.664;23.594;2023-06-22T00:15:34;11.30;;;10.10;;
23171;SDS011;11754;42.664;23.594;2023-06-22T00:18:01;13.98;;;9.85;;
23171;SDS011;11754;42.664;23.594;2023-06-22T00:33:53;15.75;;;9.55;;
23171;SDS011;11754;42.664;23.594;2023-06-22T00:36:19;12.38;;;10.48;;
23171;SDS011;11754;42.664;23.594;2023-06-22T00:38:44;12.52;;;9.77;;
23171;SDS011;11754;42.664;23.594;2023-06-22T00:41:09;12.07;;;9.80;;
23171;SDS011;11754;42.664;23.594;2023-06-22T00:43:35;14.27;;;10.05;;
23171;SDS011;11754;42.664;23.594;2023-06-22T00:53:09;15.50;;;10.13;;
23171;SDS011;11754;42.664;23.594;2023-06-22T00:55:36;12.32;;;9.95;;
23171;SDS011;11754;42.664;23.594;2023-06-22T00:58:03;13.25;;;10.80;;
23171;SDS011;11754;42.664;23.594;2023-06-22T01:00:33;13.02;;;10.93;;
23171;SDS011;11754;42.664;23.594;2023-06-22T01:02:58;13.68;;;10.43;;
23171;SDS011;11754;42.664;23.594;2023-06-22T01:05:24;11.73;;;9.70;;
23171;SDS011;11754;42.664;23.594;2023-06-22T01:37:05;18.45;;;10.23;;
23171;SDS011;11754;42.664;23.594;2023-06-22T01:39:32;19.52;;;10.07;;
23171;SDS011;11754;42.664;23.594;2023-06-22T01:41:57;12.98;;;9.65;;
23171;SDS011;11754;42.664;23.594;2023-06-22T01:44:24;12.98;;;10.07;;
23171;SDS011;11754;42.664;23.594;2023-06-22T01:46:51;12.32;;;10.60;;
23171;SDS011;11754;42.664;23.594;2023-06-22T01:49:17;12.77;;;10.43;;
23171;SDS011;11754;42.664;23.594;2023-06-22T01:51:43;15.32;;;10.02;;
23171;SDS011;11754;42.664;23.594;2023-06-22T01:54:08;12.38;;;10.18;;
23171;SDS011;11754;42.664;23.594;2023-06-22T01:56:34;12.23;;;9.80;;
23171;SDS011;11754;42.664;23.594;2023-06-22T02:01:43;11.68;;;10.20;;
23171;SDS011;11754;42.664;23.594;2023-06-22T02:04:26;10.90;;;9.52;;
23171;SDS011;11754;42.664;23.594;2023-06-22T02:06:58;14.05;;;9.52;;
23171;SDS011;11754;42.664;23.594;2023-06-22T02:09:25;14.07;;;9.98;;
23171;SDS011;11754;42.664;23.594;2023-06-22T02:11:54;15.35;;;10.32;;
23171;SDS011;11754;42.664;23.594;2023-06-22T02:14:22;11.35;;;9.43;;
23171;SDS011;11754;42.664;23.594;2023-06-22T02:16:48;11.55;;;9.80;;
23171;SDS011;11754;42.664;23.594;2023-06-22T02:19:15;11.55;;;10.02;;
23171;SDS011;11754;42.664;23.594;2023-06-22T02:21:41;13.15;;;10.10;;
23171;SDS011;11754;42.664;23.594;2023-06-22T02:24:06;17.60;;;9.82;;
23171;SDS011;11754;42.664;23.594;2023-06-22T02:26:31;10.60;;;9.48;;
23171;SDS011;11754;42.664;23.594;2023-06-22T02:28:57;14.82;;;9.93;;
23171;SDS011;11754;42.664;23.594;2023-06-22T02:31:23;11.57;;;9.73;;
23171;SDS011;11754;42.664;23.594;2023-06-22T02:33:56;15.50;;;10.30;;
23171;SDS011;11754;42.664;23.594;2023-06-22T02:36:24;14.35;;;9.82;;
23171;SDS011;11754;42.664;23.594;2023-06-22T02:38:51;12.68;;;9.93;;
23171;SDS011;11754;42.664;23.594;2023-06-22T02:41:17;15.65;;;10.43;;
23171;SDS011;11754;42.664;23.594;2023-06-22T02:43:45;12.32;;;10.10;;
23171;SDS011;11754;42.664;23.594;2023-06-22T02:46:11;15.85;;;10.18;;
23171;SDS011;11754;42.664;23.594;2023-06-22T02:48:38;18.52;;;10.07;;
23171;SDS011;11754;42.664;23.594;2023-06-22T02:58:07;18.83;;;10.60;;
23171;SDS011;11754;42.664;23.594;2023-06-22T03:00:33;18.88;;;9.93;;
23171;SDS011;11754;42.664;23.594;2023-06-22T03:02:58;19.20;;;10.07;;
23171;SDS011;11754;42.664;23.594;2023-06-22T03:05:24;18.98;;;9.73;;
23171;SDS011;11754;42.664;23.594;2023-06-22T03:07:50;17.73;;;9.65;;
23171;SDS011;11754;42.664;23.594;2023-06-22T03:10:16;16.67;;;9.27;;
23171;SDS011;11754;42.664;23.594;2023-06-22T03:12:42;17.42;;;9.40;;
23171;SDS011;11754;42.664;23.594;2023-06-22T03:15:09;14.05;;;9.30;;
23171;SDS011;11754;42.664;23.594;2023-06-22T03:17:37;16.40;;;9.57;;
23171;SDS011;11754;42.664;23.594;2023-06-22T03:20:04;17.35;;;8.98;;
23171;SDS011;11754;42.664;23.594;2023-06-22T03:22:39;14.48;;;9.45;;
23171;SDS011;11754;42.664;23.594;2023-06-22T03:25:09;17.27;;;10.55;;
23171;SDS011;11754;42.664;23.594;2023-06-22T03:27:39;22.80;;;9.80;;
23171;SDS011;11754;42.664;23.594;2023-06-22T03:33:26;23.45;;;10.98;;
23171;SDS011;11754;42.664;23.594;2023-06-22T03:35:52;19.23;;;10.52;;
23171;SDS011;11754;42.664;23.594;2023-06-22T03:38:18;19.83;;;14.07;;
23171;SDS011;11754;42.664;23.594;2023-06-22T03:40:44;20.27;;;11.95;;
23171;SDS011;11754;42.664;23.594;2023-06-22T03:43:09;25.00;;;11.18;;
23171;SDS011;11754;42.664;23.594;2023-06-22T03:45:34;20.38;;;12.93;;
23171;SDS011;11754;42.664;23.594;2023-06-22T03:48:00;37.30;;;26.10;;
23171;SDS011;11754;42.664;23.594;2023-06-22T03:53:47;46.20;;;31.02;;
23171;SDS011;11754;42.664;23.594;2023-06-22T03:56:13;30.08;;;23.13;;
23171;SDS011;11754;42.664;23.594;2023-06-22T03:58:45;66.35;;;54.33;;
23171;SDS011;11754;42.664;23.594;2023-06-22T04:01:10;120.25;;;50.13;;
23171;SDS011;11754;42.664;23.594;2023-06-22T04:03:36;199.98;;;106.05;;
23171;SDS011;11754;42.664;23.594;2023-06-22T04:06:02;249.25;;;134.95;;
23171;SDS011;11754;42.664;23.594;2023-06-22T04:08:27;281.85;;;135.75;;
23171;SDS011;11754;42.664;23.594;2023-06-22T04:10:53;90.25;;;45.08;;
23171;SDS011;11754;42.664;23.594;2023-06-22T04:13:18;27.67;;;14.70;;
23171;SDS011;11754;42.664;23.594;2023-06-22T04:15:44;16.27;;;11.57;;
23171;SDS011;11754;42.664;23.594;2023-06-22T04:18:09;17.98;;;12.07;;
23171;SDS011;11754;42.664;23.594;2023-06-22T04:20:35;16.58;;;12.50;;
23171;SDS011;11754;42.664;23.594;2023-06-22T04:23:00;21.48;;;12.68;;
23171;SDS011;11754;42.664;23.594;2023-06-22T04:25:26;34.13;;;13.43;;
23171;SDS011;11754;42.664;23.594;2023-06-22T04:27:51;19.10;;;12.55;;
23171;SDS011;11754;42.664;23.594;2023-06-22T04:30:16;20.23;;;13.07;;
23171;SDS011;11754;42.664;23.594;2023-06-22T04:32:43;17.40;;;13.10;;
23171;SDS011;11754;42.664;23.594;2023-06-22T04:35:09;22.15;;;12.85;;
23171;SDS011;11754;42.664;23.594;2023-06-22T04:37:35;26.73;;;12.70;;
23171;SDS011;11754;42.664;23.594;2023-06-22T04:40:00;20.98;;;12.82;;
23171;SDS011;11754;42.664;23.594;2023-06-22T04:42:26;27.85;;;13.70;;
23171;SDS011;11754;42.664;23.594;2023-06-22T04:44:51;30.40;;;16.50;;
23171;SDS011;11754;42.664;23.594;2023-06-22T04:47:17;34.05;;;21.80;;
23171;SDS011;11754;42.664;23.594;2023-06-22T04:49:42;34.92;;;23.48;;
23171;SDS011;11754;42.664;23.594;2023-06-22T04:52:08;34.42;;;23.35;;
23171;SDS011;11754;42.664;23.594;2023-06-22T04:54:36;29.65;;;22.40;;
23171;SDS011;11754;42.664;23.594;2023-06-22T05:00:24;24.25;;;16.52;;
23171;SDS011;11754;42.664;23.594;2023-06-22T05:02:49;35.53;;;18.33;;
23171;SDS011;11754;42.664;23.594;2023-06-22T05:05:15;30.25;;;19.48;;
23171;SDS011;11754;42.664;23.594;2023-06-22T05:07:42;31.73;;;17.48;;
23171;SDS011;11754;42.664;23.594;2023-06-22T05:10:10;29.20;;;17.15;;
23171;SDS011;11754;42.664;23.594;2023-06-22T05:12:37;26.25;;;17.85;;
23171;SDS011;11754;42.664;23.594;2023-06-22T05:15:03;26.88;;;18.45;;
23171;SDS011;11754;42.664;23.594;2023-06-22T05:17:29;28.52;;;17.85;;
23171;SDS011;11754;42.664;23.594;2023-06-22T05:19:55;24.50;;;17.90;;
23171;SDS011;11754;42.664;23.594;2023-06-22T05:22:20;32.00;;;18.17;;
23171;SDS011;11754;42.664;23.594;2023-06-22T05:24:46;20.50;;;16.50;;
23171;SDS011;11754;42.664;23.594;2023-06-22T05:27:11;21.63;;;16.13;;
23171;SDS011;11754;42.664;23.594;2023-06-22T05:29:37;19.30;;;16.23;;
23171;SDS011;11754;42.664;23.594;2023-06-22T05:32:02;22.10;;;15.02;;
23171;SDS011;11754;42.664;23.594;2023-06-22T05:34:28;19.77;;;14.30;;
23171;SDS011;11754;42.664;23.594;2023-06-22T05:36:54;21.23;;;14.98;;
23171;SDS011;11754;42.664;23.594;2023-06-22T05:39:19;21.35;;;14.48;;
23171;SDS011;11754;42.664;23.594;2023-06-22T05:41:45;19.73;;;13.85;;
23171;SDS011;11754;42.664;23.594;2023-06-22T05:44:11;17.05;;;13.73;;
23171;SDS011;11754;42.664;23.594;2023-06-22T05:46:36;21.05;;;13.98;;
23171;SDS011;11754;42.664;23.594;2023-06-22T05:49:02;16.23;;;13.77;;
23171;SDS011;11754;42.664;23.594;2023-06-22T05:51:27;16.17;;;13.93;;
23171;SDS011;11754;42.664;23.594;2023-06-22T05:53:53;19.85;;;14.32;;
23171;SDS011;11754;42.664;23.594;2023-06-22T05:56:18;17.75;;;13.45;;
23171;SDS011;11754;42.664;23.594;2023-06-22T05:58:43;18.17;;;14.43;;
23171;SDS011;11754;42.664;23.594;2023-06-22T06:01:09;23.15;;;15.35;;
23171;SDS011;11754;42.664;23.594;2023-06-22T06:03:35;20.65;;;14.40;;
23171;SDS011;11754;42.664;23.594;2023-06-22T06:06:06;16.17;;;14.43;;
23171;SDS011;11754;42.664;23.594;2023-06-22T06:08:31;18.95;;;14.93;;
23171;SDS011;11754;42.664;23.594;2023-06-22T06:10:56;19.08;;;14.52;;
23171;SDS011;11754;42.664;23.594;2023-06-22T06:13:22;16.23;;;14.50;;
23171;SDS011;11754;42.664;23.594;2023-06-22T06:15:48;16.17;;;14.48;;
23171;SDS011;11754;42.664;23.594;2023-06-22T06:18:13;17.38;;;14.90;;
23171;SDS011;11754;42.664;23.594;2023-06-22T06:20:38;23.15;;;15.32;;
23171;SDS011;11754;42.664;23.594;2023-06-22T06:23:04;23.33;;;15.30;;
23171;SDS011;11754;42.664;23.594;2023-06-22T06:25:29;24.60;;;15.80;;
23171;SDS011;11754;42.664;23.594;2023-06-22T06:27:54;24.50;;;15.65;;
23171;SDS011;11754;42.664;23.594;2023-06-22T06:30:20;23.58;;;15.07;;
23171;SDS011;11754;42.664;23.594;2023-06-22T06:32:46;23.10;;;15.25;;
23171;SDS011;11754;42.664;23.594;2023-06-22T06:35:13;22.08;;;14.02;;
23171;SDS011;11754;42.664;23.594;2023-06-22T06:37:40;23.00;;;13.75;;
23171;SDS011;11754;42.664;23.594;2023-06-22T06:40:07;15.27;;;11.88;;
23171;SDS011;11754;42.664;23.594;2023-06-22T06:42:35;15.02;;;12.10;;
23171;SDS011;11754;42.664;23.594;2023-06-22T06:45:06;20.50;;;13.02;;
23171;SDS011;11754;42.664;23.594;2023-06-22T06:47:47;17.67;;;11.25;;
23171;SDS011;11754;42.664;23.594;2023-06-22T06:50:13;15.80;;;11.57;;
23171;SDS011;11754;42.664;23.594;2023-06-22T06:52:38;14.95;;;11.80;;
23171;SDS011;11754;42.664;23.594;2023-06-22T06:55:04;15.15;;;11.73;;
23171;SDS011;11754;42.664;23.594;2023-06-22T06:57:32;14.05;;;11.40;;
23171;SDS011;11754;42.664;23.594;2023-06-22T06:59:58;17.48;;;10.80;;
23171;SDS011;11754;42.664;23.594;2023-06-22T07:02:25;14.40;;;11.10;;
23171;SDS011;11754;42.664;23.594;2023-06-22T07:04:52;16.00;;;11.15;;
23171;SDS011;11754;42.664;23.594;2023-06-22T07:07:20;12.68;;;10.75;;
23171;SDS011;11754;42.664;23.594;2023-06-22T07:09:45;13.15;;;10.98;;
23171;SDS011;11754;42.664;23.594;2023-06-22T07:12:10;15.50;;;11.23;;
23171;SDS011;11754;42.664;23.594;2023-06-22T07:14:36;13.02;;;10.00;;
23171;SDS011;11754;42.664;23.594;2023-06-22T07:17:01;15.57;;;10.52;;
23171;SDS011;11754;42.664;23.594;2023-06-22T07:19:27;13.57;;;10.35;;
23171;SDS011;11754;42.664;23.594;2023-06-22T07:21:53;11.45;;;9.98;;
23171;SDS011;11754;42.664;23.594;2023-06-22T07:24:20;12.85;;;9.93;;
23171;SDS011;11754;42.664;23.594;2023-06-22T07:26:48;17.55;;;11.07;;
23171;SDS011;11754;42.664;23.594;2023-06-22T07:29:15;17.85;;;10.52;;
23171;SDS011;11754;42.664;23.594;2023-06-22T07:31:41;13.00;;;10.52;;
23171;SDS011;11754;42.664;23.594;2023-06-22T07:34:07;15.32;;;10.43;;
23171;SDS011;11754;42.664;23.594;2023-06-22T07:36:32;15.52;;;10.18;;
23171;SDS011;11754;42.664;23.594;2023-06-22T07:38:57;13.25;;;9.90;;
23171;SDS011;11754;42.664;23.594;2023-06-22T07:41:23;12.48;;;9.82;;
23171;SDS011;11754;42.664;23.594;2023-06-22T07:43:48;10.35;;;9.25;;
23171;SDS011;11754;42.664;23.594;2023-06-22T07:46:14;14.57;;;8.82;;
23171;SDS011;11754;42.664;23.594;2023-06-22T07:48:40;11.82;;;9.02;;
23171;SDS011;11754;42.664;23.594;2023-06-22T07:51:06;10.73;;;9.05;;
23171;SDS011;11754;42.664;23.594;2023-06-22T07:53:32;10.45;;;9.40;;
23171;SDS011;11754;42.664;23.594;2023-06-22T07:55:57;12.48;;;9.07;;
23171;SDS011;11754;42.664;23.594;2023-06-22T07:58:23;9.10;;;8.20;;
23171;SDS011;11754;42.664;23.594;2023-06-22T08:00:48;11.25;;;8.70;;
23171;SDS011;11754;42.664;23.594;2023-06-22T08:03:14;11.35;;;8.13;;
23171;SDS011;11754;42.664;23.594;2023-06-22T08:05:39;10.75;;;8.30;;
23171;SDS011;11754;42.664;23.594;2023-06-22T08:08:05;10.60;;;7.47;;
23171;SDS011;11754;42.664;23.594;2023-06-22T08:10:30;12.27;;;6.88;;
23171;SDS011;11754;42.664;23.594;2023-06-22T08:12:55;7.68;;;6.60;;
23171;SDS011;11754;42.664;23.594;2023-06-22T08:15:21;9.40;;;6.95;;
23171;SDS011;11754;42.664;23.594;2023-06-22T08:17:47;9.00;;;6.80;;
23171;SDS011;11754;42.664;23.594;2023-06-22T08:20:12;8.15;;;6.38;;
23171;SDS011;11754;42.664;23.594;2023-06-22T08:22:38;8.65;;;6.80;;
23171;SDS011;11754;42.664;23.594;2023-06-22T08:25:04;11.60;;;7.63;;
23171;SDS011;11754;42.664;23.594;2023-06-22T08:27:30;17.60;;;8.68;;
23171;SDS011;11754;42.664;23.594;2023-06-22T08:29:59;9.82;;;7.43;;
23171;SDS011;11754;42.664;23.594;2023-06-22T08:32:26;11.57;;;7.75;;
23171;SDS011;11754;42.664;23.594;2023-06-22T08:34:53;9.75;;;7.10;;
23171;SDS011;11754;42.664;23.594;2023-06-22T08:37:22;10.35;;;7.43;;
23171;SDS011;11754;42.664;23.594;2023-06-22T08:39:49;8.27;;;6.28;;
23171;SDS011;11754;42.664;23.594;2023-06-22T08:42:15;10.93;;;6.60;;
23171;SDS011;11754;42.664;23.594;2023-06-22T08:44:41;8.75;;;6.60;;
23171;SDS011;11754;42.664;23.594;2023-06-22T08:47:06;7.93;;;6.70;;
23171;SDS011;11754;42.664;23.594;2023-06-22T08:49:32;7.10;;;6.40;;
23171;SDS011;11754;42.664;23.594;2023-06-22T08:51:57;7.35;;;6.55;;
23171;SDS011;11754;42.664;23.594;2023-06-22T08:54:22;10.32;;;7.18;;
23171;SDS011;11754;42.664;23.594;2023-06-22T08:56:48;13.75;;;6.60;;
23171;SDS011;11754;42.664;23.594;2023-06-22T08:59:14;18.77;;;7.10;;
23171;SDS011;11754;42.664;23.594;2023-06-22T09:01:39;10.70;;;6.35;;
23171;SDS011;11754;42.664;23.594;2023-06-22T09:04:04;9.60;;;6.72;;
23171;SDS011;11754;42.664;23.594;2023-06-22T09:06:32;8.23;;;6.47;;
23171;SDS011;11754;42.664;23.594;2023-06-22T09:08:57;8.73;;;6.38;;
23171;SDS011;11754;42.664;23.594;2023-06-22T09:11:24;8.98;;;6.10;;
23171;SDS011;11754;42.664;23.594;2023-06-22T09:13:50;11.35;;;6.18;;
23171;SDS011;11754;42.664;23.594;2023-06-22T09:16:17;25.90;;;6.82;;
23171;SDS011;11754;42.664;23.594;2023-06-22T09:18:42;8.43;;;5.78;;
23171;SDS011;11754;42.664;23.594;2023-06-22T09:21:11;10.80;;;6.10;;
23171;SDS011;11754;42.664;23.594;2023-06-22T09:23:37;7.82;;;6.38;;
23171;SDS011;11754;42.664;23.594;2023-06-22T09:26:02;9.63;;;6.47;;
23171;SDS011;11754;42.664;23.594;2023-06-22T09:28:29;6.78;;;6.07;;
23171;SDS011;11754;42.664;23.594;2023-06-22T09:30:54;7.75;;;5.80;;
23171;SDS011;11754;42.664;23.594;2023-06-22T09:33:24;8.88;;;5.90;;
23171;SDS011;11754;42.664;23.594;2023-06-22T09:35:50;12.65;;;6.68;;
23171;SDS011;11754;42.664;23.594;2023-06-22T09:38:16;10.00;;;5.40;;
23171;SDS011;11754;42.664;23.594;2023-06-22T09:40:41;11.77;;;5.85;;
23171;SDS011;11754;42.664;23.594;2023-06-22T09:43:07;11.57;;;7.15;;
23171;SDS011;11754;42.664;23.594;2023-06-22T09:45:32;14.23;;;7.47;;
23171;SDS011;11754;42.664;23.594;2023-06-22T09:47:57;12.80;;;6.20;;
23171;SDS011;11754;42.664;23.594;2023-06-22T09:50:23;10.98;;;5.90;;
23171;SDS011;11754;42.664;23.594;2023-06-22T09:52:48;10.20;;;5.75;;
23171;SDS011;11754;42.664;23.594;2023-06-22T09:55:19;17.92;;;6.50;;
23171;SDS011;11754;42.664;23.594;2023-06-22T09:57:45;10.48;;;5.80;;
23171;SDS011;11754;42.664;23.594;2023-06-22T10:00:10;10.38;;;5.90;;
23171;SDS011;11754;42.664;23.594;2023-06-22T10:02:41;8.43;;;5.45;;
23171;SDS011;11754;42.664;23.594;2023-06-22T10:05:07;8.35;;;5.30;;
23171;SDS011;11754;42.664;23.594;2023-06-22T10:07:32;12.02;;;5.88;;
23171;SDS011;11754;42.664;23.594;2023-06-22T10:09:58;10.25;;;5.72;;
23171;SDS011;11754;42.664;23.594;2023-06-22T10:12:24;8.50;;;5.88;;
23171;SDS011;11754;42.664;23.594;2023-06-22T10:14:50;8.30;;;5.60;;
23171;SDS011;11754;42.664;23.594;2023-06-22T10:17:15;7.93;;;6.13;;
23171;SDS011;11754;42.664;23.594;2023-06-22T10:19:41;11.18;;;6.05;;
23171;SDS011;11754;42.664;23.594;2023-06-22T10:22:06;7.47;;;6.50;;
23171;SDS011;11754;42.664;23.594;2023-06-22T10:24:32;7.55;;;6.13;;
23171;SDS011;11754;42.664;23.594;2023-06-22T10:26:57;7.70;;;6.35;;
23171;SDS011;11754;42.664;23.594;2023-06-22T10:29:23;8.07;;;5.85;;
23171;SDS011;11754;42.664;23.594;2023-06-22T10:31:48;7.43;;;5.90;;
23171;SDS011;11754;42.664;23.594;2023-06-22T10:34:13;10.52;;;6.35;;
23171;SDS011;11754;42.664;23.594;2023-06-22T10:36:39;8.48;;;5.57;;
23171;SDS011;11754;42.664;23.594;2023-06-22T10:39:04;7.07;;;5.50;;
23171;SDS011;11754;42.664;23.594;2023-06-22T10:41:30;10.25;;;6.15;;
23171;SDS011;11754;42.664;23.594;2023-06-22T10:43:56;10.02;;;5.90;;
23171;SDS011;11754;42.664;23.594;2023-06-22T10:46:21;7.82;;;5.80;;
23171;SDS011;11754;42.664;23.594;2023-06-22T10:48:49;12.57;;;5.70;;
23171;SDS011;11754;42.664;23.594;2023-06-22T10:51:14;7.90;;;5.55;;
23171;SDS011;11754;42.664;23.594;2023-06-22T10:53:39;6.93;;;5.40;;
23171;SDS011;11754;42.664;23.594;2023-06-22T10:56:05;6.95;;;5.60;;
23171;SDS011;11754;42.664;23.594;2023-06-22T10:58:30;8.48;;;5.07;;
23171;SDS011;11754;42.664;23.594;2023-06-22T11:00:55;7.72;;;5.47;;
23171;SDS011;11754;42.664;23.594;2023-06-22T11:03:20;7.18;;;5.57;;
23171;SDS011;11754;42.664;23.594;2023-06-22T11:05:46;8.65;;;5.68;;
23171;SDS011;11754;42.664;23.594;2023-06-22T11:08:12;6.85;;;5.30;;
23171;SDS011;11754;42.664;23.594;2023-06-22T11:10:38;5.93;;;5.25;;
23171;SDS011;11754;42.664;23.594;2023-06-22T11:13:03;6.32;;;5.30;;
23171;SDS011;11754;42.664;23.594;2023-06-22T11:15:30;9.35;;;5.07;;
23171;SDS011;11754;42.664;23.594;2023-06-22T11:17:55;10.45;;;5.45;;
23171;SDS011;11754;42.664;23.594;2023-06-22T11:20:21;8.35;;;5.00;;
23171;SDS011;11754;42.664;23.594;2023-06-22T11:22:46;12.32;;;5.35;;
23171;SDS011;11754;42.664;23.594;2023-06-22T11:25:12;10.07;;;5.63;;
23171;SDS011;11754;42.664;23.594;2023-06-22T11:27:37;8.20;;;5.15;;
23171;SDS011;11754;42.664;23.594;2023-06-22T11:30:03;6.75;;;5.03;;
23171;SDS011;11754;42.664;23.594;2023-06-22T11:32:29;7.25;;;5.15;;
23171;SDS011;11754;42.664;23.594;2023-06-22T11:34:54;6.35;;;4.80;;
23171;SDS011;11754;42.664;23.594;2023-06-22T11:37:20;9.05;;;5.10;;
23171;SDS011;11754;42.664;23.594;2023-06-22T11:39:45;6.68;;;4.85;;
23171;SDS011;11754;42.664;23.594;2023-06-22T11:42:10;9.57;;;5.05;;
23171;SDS011;11754;42.664;23.594;2023-06-22T11:44:36;8.30;;;4.72;;
23171;SDS011;11754;42.664;23.594;2023-06-22T11:47:01;7.53;;;5.07;;
23171;SDS011;11754;42.664;23.594;2023-06-22T11:49:29;6.10;;;4.80;;
23171;SDS011;11754;42.664;23.594;2023-06-22T11:51:54;11.95;;;5.00;;
23171;SDS011;11754;42.664;23.594;2023-06-22T11:54:20;7.18;;;4.15;;
23171;SDS011;11754;42.664;23.594;2023-06-22T11:56:45;5.80;;;4.70;;
23171;SDS011;11754;42.664;23.594;2023-06-22T11:59:11;5.10;;;4.55;;
23171;SDS011;11754;42.664;23.594;2023-06-22T12:01:36;5.10;;;4.55;;
23171;SDS011;11754;42.664;23.594;2023-06-22T12:04:01;10.18;;;4.75;;
23171;SDS011;11754;42.664;23.594;2023-06-22T12:06:30;5.20;;;4.70;;
23171;SDS011;11754;42.664;23.594;2023-06-22T12:08:56;6.93;;;4.78;;
23171;SDS011;11754;42.664;23.594;2023-06-22T12:11:24;7.07;;;4.70;;
23171;SDS011;11754;42.664;23.594;2023-06-22T12:13:50;5.45;;;4.70;;
23171;SDS011;11754;42.664;23.594;2023-06-22T12:16:15;8.18;;;5.45;;
23171;SDS011;11754;42.664;23.594;2023-06-22T12:18:40;9.15;;;5.22;;
23171;SDS011;11754;42.664;23.594;2023-06-22T12:21:06;9.77;;;5.38;;
23171;SDS011;11754;42.664;23.594;2023-06-22T12:23:32;7.32;;;5.50;;
23171;SDS011;11754;42.664;23.594;2023-06-22T12:25:57;7.07;;;5.60;;
23171;SDS011;11754;42.664;23.594;2023-06-22T12:28:23;8.10;;;5.63;;
23171;SDS011;11754;42.664;23.594;2023-06-22T12:30:48;8.77;;;6.03;;
23171;SDS011;11754;42.664;23.594;2023-06-22T12:33:14;6.55;;;5.85;;
23171;SDS011;11754;42.664;23.594;2023-06-22T12:35:39;9.85;;;6.00;;
23171;SDS011;11754;42.664;23.594;2023-06-22T12:38:04;11.15;;;6.10;;
23171;SDS011;11754;42.664;23.594;2023-06-22T12:40:32;8.88;;;6.05;;
23171;SDS011;11754;42.664;23.594;2023-06-22T12:42:58;8.80;;;5.82;;
23171;SDS011;11754;42.664;23.594;2023-06-22T12:45:23;6.93;;;5.88;;
23171;SDS011;11754;42.664;23.594;2023-06-22T12:47:49;6.50;;;5.55;;
23171;SDS011;11754;42.664;23.594;2023-06-22T12:50:15;6.00;;;5.38;;
23171;SDS011;11754;42.664;23.594;2023-06-22T12:52:40;10.40;;;6.13;;
23171;SDS011;11754;42.664;23.594;2023-06-22T12:55:06;8.57;;;5.20;;
23171;SDS011;11754;42.664;23.594;2023-06-22T12:57:32;6.72;;;5.53;;
23171;SDS011;11754;42.664;23.594;2023-06-22T12:59:57;9.43;;;6.25;;
23171;SDS011;11754;42.664;23.594;2023-06-22T13:02:23;7.53;;;5.50;;
23171;SDS011;11754;42.664;23.594;2023-06-22T13:04:49;7.43;;;5.30;;
23171;SDS011;11754;42.664;23.594;2023-06-22T13:07:14;7.35;;;5.60;;
23171;SDS011;11754;42.664;23.594;2023-06-22T13:09:39;5.97;;;5.20;;
23171;SDS011;11754;42.664;23.594;2023-06-22T13:12:05;8.43;;;5.32;;
23171;SDS011;11754;42.664;23.594;2023-06-22T13:14:30;10.52;;;6.03;;
23171;SDS011;11754;42.664;23.594;2023-06-22T13:16:56;13.52;;;6.60;;
23171;SDS011;11754;42.664;23.594;2023-06-22T13:19:21;13.98;;;6.35;;
23171;SDS011;11754;42.664;23.594;2023-06-22T13:21:46;20.73;;;6.35;;
23171;SDS011;11754;42.664;23.594;2023-06-22T13:24:12;18.25;;;6.30;;
23171;SDS011;11754;42.664;23.594;2023-06-22T13:26:37;22.48;;;6.95;;
23171;SDS011;11754;42.664;23.594;2023-06-22T13:29:03;14.20;;;6.78;;
23171;SDS011;11754;42.664;23.594;2023-06-22T13:31:28;9.05;;;7.03;;
23171;SDS011;11754;42.664;23.594;2023-06-22T13:33:53;12.93;;;6.82;;
23171;SDS011;11754;42.664;23.594;2023-06-22T13:36:19;11.00;;;7.00;;
23171;SDS011;11754;42.664;23.594;2023-06-22T13:38:44;14.43;;;7.05;;
23171;SDS011;11754;42.664;23.594;2023-06-22T13:41:10;20.58;;;7.60;;
23171;SDS011;11754;42.664;23.594;2023-06-22T13:43:38;15.02;;;7.10;;
23171;SDS011;11754;42.664;23.594;2023-06-22T13:46:03;10.88;;;7.22;;
23171;SDS011;11754;42.664;23.594;2023-06-22T13:48:29;12.05;;;8.55;;
23171;SDS011;11754;42.664;23.594;2023-06-22T13:50:54;12.18;;;8.32;;
23171;SDS011;11754;42.664;23.594;2023-06-22T13:53:19;16.98;;;8.90;;
23171;SDS011;11754;42.664;23.594;2023-06-22T13:55:45;10.70;;;7.68;;
23171;SDS011;11754;42.664;23.594;2023-06-22T13:58:11;17.48;;;8.13;;
23171;SDS011;11754;42.664;23.594;2023-06-22T14:00:37;14.10;;;8.88;;
23171;SDS011;11754;42.664;23.594;2023-06-22T14:03:02;20.58;;;8.43;;
23171;SDS011;11754;42.664;23.594;2023-06-22T14:05:28;19.05;;;8.73;;
23171;SDS011;11754;42.664;23.594;2023-06-22T14:07:53;12.23;;;8.32;;
23171;SDS011;11754;42.664;23.594;2023-06-22T14:10:19;20.42;;;9.30;;
23171;SDS011;11754;42.664;23.594;2023-06-22T14:12:44;12.90;;;8.82;;
23171;SDS011;11754;42.664;23.594;2023-06-22T14:15:09;14.90;;;8.90;;
23171;SDS011;11754;42.664;23.594;2023-06-22T14:17:35;14.35;;;9.35;;
23171;SDS011;11754;42.664;23.594;2023-06-22T14:20:00;15.73;;;9.80;;
23171;SDS011;11754;42.664;23.594;2023-06-22T14:22:30;19.95;;;9.75;;
23171;SDS011;11754;42.664;23.594;2023-06-22T14:24:55;15.80;;;9.40;;
23171;SDS011;11754;42.664;23.594;2023-06-22T14:27:22;17.48;;;9.05;;
23171;SDS011;11754;42.664;23.594;2023-06-22T14:29:48;17.70;;;9.00;;
23171;SDS011;11754;42.664;23.594;2023-06-22T14:32:15;16.38;;;9.30;;
23171;SDS011;11754;42.664;23.594;2023-06-22T14:34:41;15.50;;;8.57;;
23171;SDS011;11754;42.664;23.594;2023-06-22T14:37:07;26.00;;;9.20;;
23171;SDS011;11754;42.664;23.594;2023-06-22T14:39:34;22.17;;;9.00;;
23171;SDS011;11754;42.664;23.594;2023-06-22T14:42:00;19.90;;;8.85;;
23171;SDS011;11754;42.664;23.594;2023-06-22T14:44:31;13.93;;;8.63;;
23171;SDS011;11754;42.664;23.594;2023-06-22T14:46:56;13.75;;;9.18;;
23171;SDS011;11754;42.664;23.594;2023-06-22T14:49:22;12.18;;;8.45;;
23171;SDS011;11754;42.664;23.594;2023-06-22T14:51:48;13.27;;;8.90;;
23171;SDS011;11754;42.664;23.594;2023-06-22T14:54:14;15.43;;;8.93;;
23171;SDS011;11754;42.664;23.594;2023-06-22T14:56:39;11.27;;;8.27;;
23171;SDS011;11754;42.664;23.594;2023-06-22T14:59:05;15.25;;;9.02;;
23171;SDS011;11754;42.664;23.594;2023-06-22T15:01:31;12.85;;;8.73;;
23171;SDS011;11754;42.664;23.594;2023-06-22T15:03:56;20.92;;;9.20;;
23171;SDS011;11754;42.664;23.594;2023-06-22T15:06:21;15.43;;;8.73;;
23171;SDS011;11754;42.664;23.594;2023-06-22T15:08:47;12.50;;;8.95;;
23171;SDS011;11754;42.664;23.594;2023-06-22T15:11:12;14.88;;;9.02;;
23171;SDS011;11754;42.664;23.594;2023-06-22T15:13:39;17.40;;;8.43;;
23171;SDS011;11754;42.664;23.594;2023-06-22T15:16:05;15.75;;;8.82;;
23171;SDS011;11754;42.664;23.594;2023-06-22T15:18:31;13.55;;;8.57;;
23171;SDS011;11754;42.664;23.594;2023-06-22T15:20:58;15.52;;;8.88;;
23171;SDS011;11754;42.664;23.594;2023-06-22T15:23:26;13.90;;;9.07;;